createdAt,value
2018-07-07T00:00:56.249Z,1007.40
2018-07-07T00:01:56.278Z,1007.40
2018-07-07T00:02:56.289Z,1007.42
2018-07-07T00:03:56.298Z,1007.40
2018-07-07T00:04:56.320Z,1007.43
2018-07-07T00:05:56.352Z,1007.43
2018-07-07T00:06:56.354Z,1007.43
2018-07-07T00:07:56.373Z,1007.42
2018-07-07T00:08:56.394Z,1007.45
2018-07-07T00:09:56.415Z,1007.43
2018-07-07T00:10:56.434Z,1007.41
2018-07-07T00:11:56.479Z,1007.43
2018-07-07T00:12:56.474Z,1007.47
2018-07-07T00:13:56.487Z,1007.44
2018-07-07T00:14:56.529Z,1007.45
2018-07-07T00:15:56.531Z,1007.45
2018-07-07T00:16:56.553Z,1007.45
2018-07-07T00:17:56.562Z,1007.47
2018-07-07T00:18:56.584Z,1007.49
2018-07-07T00:19:56.606Z,1007.50
2018-07-07T00:20:56.619Z,1007.44
2018-07-07T00:21:56.642Z,1007.46
2018-07-07T00:22:56.659Z,1007.47
2018-07-07T00:23:56.684Z,1007.50
2018-07-07T00:24:56.696Z,1007.48
2018-07-07T00:25:56.731Z,1007.46
2018-07-07T00:26:56.732Z,1007.43
2018-07-07T00:27:56.754Z,1007.45
2018-07-07T00:28:56.778Z,1007.44
2018-07-07T00:29:56.788Z,1007.45
2018-07-07T00:30:56.808Z,1007.48
2018-07-07T00:31:56.831Z,1007.46
2018-07-07T00:32:56.849Z,1007.47
2018-07-07T00:33:56.870Z,1007.50
2018-07-07T00:34:56.883Z,1007.45
2018-07-07T00:35:56.904Z,1007.45
2018-07-07T00:36:56.926Z,1007.45
2018-07-07T00:37:56.941Z,1007.44
2018-07-07T00:38:56.959Z,1007.42
2018-07-07T00:39:56.977Z,1007.45
2018-07-07T00:40:56.994Z,1007.41
2018-07-07T00:41:57.020Z,1007.42
2018-07-07T00:42:57.034Z,1007.40
2018-07-07T00:43:57.056Z,1007.44
2018-07-07T00:44:57.081Z,1007.47
2018-07-07T00:45:57.096Z,1007.44
2018-07-07T00:46:57.113Z,1007.45
2018-07-07T00:47:57.126Z,1007.48
2018-07-07T00:48:57.154Z,1007.45
2018-07-07T00:49:57.166Z,1007.47
2018-07-07T00:50:57.183Z,1007.48
2018-07-07T00:51:57.199Z,1007.47
2018-07-07T00:52:57.223Z,1007.51
2018-07-07T00:53:57.239Z,1007.50
2018-07-07T00:54:57.261Z,1007.51
2018-07-07T00:55:57.274Z,1007.50
2018-07-07T00:56:57.293Z,1007.47
2018-07-07T00:57:57.318Z,1007.50
2018-07-07T00:58:57.331Z,1007.50
2018-07-07T00:59:57.349Z,1007.48
2018-07-07T01:00:57.373Z,1007.50
2018-07-07T01:01:57.395Z,1007.53
2018-07-07T01:02:57.409Z,1007.52
2018-07-07T01:03:57.424Z,1007.51
2018-07-07T01:04:57.441Z,1007.55
2018-07-07T01:05:57.460Z,1007.57
2018-07-07T01:06:57.483Z,1007.59
2018-07-07T01:07:57.507Z,1007.59
2018-07-07T01:08:57.518Z,1007.62
2018-07-07T01:09:57.537Z,1007.59
2018-07-07T01:10:57.555Z,1007.59
2018-07-07T01:11:57.575Z,1007.60
2018-07-07T01:12:57.590Z,1007.60
2018-07-07T01:13:57.607Z,1007.58
2018-07-07T01:14:57.632Z,1007.58
2018-07-07T01:15:57.644Z,1007.59
2018-07-07T01:16:57.662Z,1007.59
2018-07-07T01:17:57.693Z,1007.58
2018-07-07T01:18:57.707Z,1007.62
2018-07-07T01:19:57.721Z,1007.58
2018-07-07T01:20:57.746Z,1007.57
2018-07-07T01:21:57.758Z,1007.60
2018-07-07T01:22:57.781Z,1007.63
2018-07-07T01:23:57.790Z,1007.60
2018-07-07T01:24:57.818Z,1007.61
2018-07-07T01:25:57.827Z,1007.59
2018-07-07T01:26:57.864Z,1007.62
2018-07-07T01:27:57.864Z,1007.60
2018-07-07T01:28:57.884Z,1007.58
2018-07-07T01:29:57.905Z,1007.60
2018-07-07T01:30:57.923Z,1007.61
2018-07-07T01:31:57.949Z,1007.62
2018-07-07T01:32:57.963Z,1007.63
2018-07-07T01:33:57.978Z,1007.57
2018-07-07T01:34:58.001Z,1007.62
2018-07-07T01:35:58.018Z,1007.61
2018-07-07T01:36:58.039Z,1007.63
2018-07-07T01:37:58.053Z,1007.68
2018-07-07T01:38:58.073Z,1007.63
2018-07-07T01:39:58.090Z,1007.66
2018-07-07T01:40:58.117Z,1007.63
2018-07-07T01:41:58.133Z,1007.63
2018-07-07T01:42:58.149Z,1007.64
2018-07-07T01:43:58.168Z,1007.66
2018-07-07T01:44:58.190Z,1007.67
2018-07-07T01:45:58.215Z,1007.66
2018-07-07T01:46:58.217Z,1007.66
2018-07-07T01:47:58.235Z,1007.65
2018-07-07T01:48:58.250Z,1007.68
2018-07-07T01:49:58.272Z,1007.68
2018-07-07T01:50:58.287Z,1007.63
2018-07-07T01:51:58.304Z,1007.68
2018-07-07T01:52:58.331Z,1007.61
2018-07-07T01:53:58.347Z,1007.63
2018-07-07T01:54:58.361Z,1007.64
2018-07-07T01:55:58.390Z,1007.64
2018-07-07T01:56:58.397Z,1007.62
2018-07-07T01:57:58.433Z,1007.60
2018-07-07T01:58:58.436Z,1007.60
2018-07-07T01:59:58.453Z,1007.59
2018-07-07T02:00:58.469Z,1007.58
2018-07-07T02:01:58.488Z,1007.61
2018-07-07T02:02:58.511Z,1007.58
2018-07-07T02:03:58.525Z,1007.59
2018-07-07T02:04:58.544Z,1007.60
2018-07-07T02:05:58.564Z,1007.62
2018-07-07T02:06:58.596Z,1007.63
2018-07-07T02:07:58.596Z,1007.63
2018-07-07T02:08:58.619Z,1007.61
2018-07-07T02:09:58.636Z,1007.67
2018-07-07T02:10:58.661Z,1007.68
2018-07-07T02:11:58.668Z,1007.66
2018-07-07T02:12:58.694Z,1007.66
2018-07-07T02:13:58.708Z,1007.68
2018-07-07T02:14:58.728Z,1007.66
2018-07-07T02:15:58.770Z,1007.68
2018-07-07T02:16:58.765Z,1007.67
2018-07-07T02:17:58.783Z,1007.67
2018-07-07T02:18:58.793Z,1007.66
2018-07-07T02:19:58.817Z,1007.66
2018-07-07T02:20:58.841Z,1007.64
2018-07-07T02:21:58.856Z,1007.68
2018-07-07T02:22:58.874Z,1007.70
2018-07-07T02:23:58.890Z,1007.69
2018-07-07T02:24:58.909Z,1007.70
2018-07-07T02:25:58.924Z,1007.71
2018-07-07T02:26:58.945Z,1007.66
2018-07-07T02:27:58.962Z,1007.70
2018-07-07T02:28:58.983Z,1007.69
2018-07-07T02:29:58.995Z,1007.69
2018-07-07T02:30:59.021Z,1007.67
2018-07-07T02:31:59.031Z,1007.69
2018-07-07T02:32:59.060Z,1007.72
2018-07-07T02:33:59.074Z,1007.71
2018-07-07T02:34:59.088Z,1007.68
2018-07-07T02:35:59.107Z,1007.73
2018-07-07T02:36:59.132Z,1007.75
2018-07-07T02:37:59.146Z,1007.74
2018-07-07T02:38:59.157Z,1007.75
2018-07-07T02:39:59.177Z,1007.72
2018-07-07T02:40:59.193Z,1007.72
2018-07-07T02:41:59.216Z,1007.76
2018-07-07T02:42:59.241Z,1007.74
2018-07-07T02:43:59.249Z,1007.80
2018-07-07T02:44:59.271Z,1007.79
2018-07-07T02:45:59.290Z,1007.82
2018-07-07T02:46:59.300Z,1007.80
2018-07-07T02:47:59.321Z,1007.80
2018-07-07T02:48:59.335Z,1007.81
2018-07-07T02:49:59.359Z,1007.84
2018-07-07T02:50:59.380Z,1007.90
2018-07-07T02:51:59.390Z,1007.87
2018-07-07T02:52:59.408Z,1007.87
2018-07-07T02:53:59.429Z,1007.88
2018-07-07T02:54:59.453Z,1007.89
2018-07-07T02:55:59.469Z,1007.89
2018-07-07T02:56:59.478Z,1007.90
2018-07-07T02:57:59.504Z,1007.94
2018-07-07T02:58:59.516Z,1007.93
2018-07-07T02:59:59.549Z,1007.94
2018-07-07T03:00:59.554Z,1007.97
2018-07-07T03:01:59.575Z,1007.90
2018-07-07T03:02:59.607Z,1007.95
2018-07-07T03:03:59.609Z,1007.96
2018-07-07T03:04:59.627Z,1007.92
2018-07-07T03:05:59.642Z,1007.98
2018-07-07T03:06:59.679Z,1007.97
2018-07-07T03:07:59.682Z,1007.97
2018-07-07T03:08:59.701Z,1007.98
2018-07-07T03:09:59.725Z,1007.96
2018-07-07T03:10:59.730Z,1007.98
2018-07-07T03:11:59.761Z,1007.99
2018-07-07T03:12:59.780Z,1007.97
2018-07-07T03:13:59.795Z,1008.02
2018-07-07T03:14:59.863Z,1008.04
2018-07-07T03:15:59.824Z,1008.05
2018-07-07T03:16:59.837Z,1008.06
2018-07-07T03:17:59.861Z,1008.08
2018-07-07T03:18:59.875Z,1008.08
2018-07-07T03:19:59.897Z,1008.04
2018-07-07T03:20:59.912Z,1008.05
2018-07-07T03:21:59.936Z,1008.11
2018-07-07T03:22:59.949Z,1008.10
2018-07-07T03:23:59.978Z,1008.13
2018-07-07T03:24:59.990Z,1008.12
2018-07-07T03:26:00.001Z,1008.17
2018-07-07T03:27:00.117Z,1008.16
2018-07-07T03:28:00.053Z,1008.19
2018-07-07T03:29:00.056Z,1008.20
2018-07-07T03:30:00.080Z,1008.20
2018-07-07T03:31:00.115Z,1008.22
2018-07-07T03:32:00.120Z,1008.22
2018-07-07T03:33:00.151Z,1008.25
2018-07-07T03:34:00.172Z,1008.26
2018-07-07T03:35:00.199Z,1008.27
2018-07-07T03:36:00.178Z,1008.26
2018-07-07T03:37:00.195Z,1008.28
2018-07-07T03:38:00.253Z,1008.30
2018-07-07T03:39:00.232Z,1008.29
2018-07-07T03:40:00.257Z,1008.34
2018-07-07T03:41:00.309Z,1008.38
2018-07-07T03:42:00.284Z,1008.40
2018-07-07T03:43:00.318Z,1008.39
2018-07-07T03:44:00.338Z,1008.43
2018-07-07T03:45:00.338Z,1008.44
2018-07-07T03:46:00.358Z,1008.45
2018-07-07T03:47:00.380Z,1008.46
2018-07-07T03:48:00.392Z,1008.45
2018-07-07T03:49:00.410Z,1008.48
2018-07-07T03:50:00.427Z,1008.50
2018-07-07T03:51:00.449Z,1008.51
2018-07-07T03:52:00.461Z,1008.49
2018-07-07T03:53:00.487Z,1008.48
2018-07-07T03:54:00.500Z,1008.48
2018-07-07T03:55:00.522Z,1008.49
2018-07-07T03:56:00.534Z,1008.47
2018-07-07T03:57:00.564Z,1008.46
2018-07-07T03:58:00.573Z,1008.48
2018-07-07T03:59:00.611Z,1008.51
2018-07-07T04:00:00.608Z,1008.46
2018-07-07T04:01:00.633Z,1008.48
2018-07-07T04:02:00.646Z,1008.51
2018-07-07T04:03:00.666Z,1008.52
2018-07-07T04:04:00.679Z,1008.54
2018-07-07T04:05:00.699Z,1008.55
2018-07-07T04:06:00.716Z,1008.55
2018-07-07T04:07:00.734Z,1008.56
2018-07-07T04:08:00.750Z,1008.62
2018-07-07T04:09:00.769Z,1008.65
2018-07-07T04:10:00.790Z,1008.65
2018-07-07T04:11:00.803Z,1008.64
2018-07-07T04:12:00.820Z,1008.70
2018-07-07T04:13:00.855Z,1008.67
2018-07-07T04:14:00.877Z,1008.72
2018-07-07T04:15:00.909Z,1008.71
2018-07-07T04:16:00.897Z,1008.71
2018-07-07T04:17:00.917Z,1008.74
2018-07-07T04:18:00.928Z,1008.75
2018-07-07T04:19:00.949Z,1008.74
2018-07-07T04:20:01.029Z,1008.74
2018-07-07T04:21:01.008Z,1008.72
2018-07-07T04:22:01.003Z,1008.73
2018-07-07T04:23:01.021Z,1008.77
2018-07-07T04:24:01.042Z,1008.76
2018-07-07T04:25:01.062Z,1008.79
2018-07-07T04:26:01.092Z,1008.79
2018-07-07T04:27:01.099Z,1008.75
2018-07-07T04:28:01.113Z,1008.74
2018-07-07T04:29:01.130Z,1008.74
2018-07-07T04:30:01.152Z,1008.75
2018-07-07T04:31:01.169Z,1008.72
2018-07-07T04:32:01.198Z,1008.72
2018-07-07T04:33:01.211Z,1008.72
2018-07-07T04:34:01.224Z,1008.68
2018-07-07T04:35:01.243Z,1008.73
2018-07-07T04:36:01.270Z,1008.73
2018-07-07T04:37:01.280Z,1008.70
2018-07-07T04:38:01.296Z,1008.70
2018-07-07T04:39:01.311Z,1008.70
2018-07-07T04:40:01.329Z,1008.70
2018-07-07T04:41:01.353Z,1008.67
2018-07-07T04:42:01.386Z,1008.73
2018-07-07T04:43:01.387Z,1008.76
2018-07-07T04:44:01.411Z,1008.76
2018-07-07T04:45:01.427Z,1008.79
2018-07-07T04:46:01.470Z,1008.78
2018-07-07T04:47:01.473Z,1008.77
2018-07-07T04:48:01.478Z,1008.80
2018-07-07T04:49:01.505Z,1008.81
2018-07-07T04:50:01.526Z,1008.80
2018-07-07T04:51:01.542Z,1008.80
2018-07-07T04:52:01.559Z,1008.85
2018-07-07T04:53:01.598Z,1008.86
2018-07-07T04:54:01.596Z,1008.84
2018-07-07T04:55:01.610Z,1008.91
2018-07-07T04:56:01.634Z,1008.94
2018-07-07T04:57:01.658Z,1009.00
2018-07-07T04:58:01.668Z,1009.23
2018-07-07T04:59:01.689Z,1009.58
2018-07-07T05:00:01.710Z,1009.62
2018-07-07T05:01:01.725Z,1009.62
2018-07-07T05:02:01.751Z,1009.73
2018-07-07T05:03:01.779Z,1009.79
2018-07-07T05:04:01.788Z,1009.70
2018-07-07T05:05:01.810Z,1009.76
2018-07-07T05:06:01.841Z,1009.79
2018-07-07T05:07:01.856Z,1009.88
2018-07-07T05:08:01.881Z,1009.92
2018-07-07T05:09:01.907Z,1009.90
2018-07-07T05:10:01.920Z,1009.94
2018-07-07T05:11:01.943Z,1009.99
2018-07-07T05:12:01.965Z,1010.02
2018-07-07T05:13:02.006Z,1010.07
2018-07-07T05:14:02.014Z,1010.10
2018-07-07T05:15:02.046Z,1010.13
2018-07-07T05:16:02.063Z,1010.15
2018-07-07T05:17:02.087Z,1010.12
2018-07-07T05:18:02.109Z,1010.19
2018-07-07T05:19:02.130Z,1010.28
2018-07-07T05:20:02.163Z,1010.25
2018-07-07T05:21:02.182Z,1010.29
2018-07-07T05:22:02.215Z,1010.30
2018-07-07T05:23:02.235Z,1010.30
2018-07-07T05:24:02.266Z,1010.30
2018-07-07T05:25:02.288Z,1010.30
2018-07-07T05:26:02.311Z,1010.37
2018-07-07T05:27:02.339Z,1010.36
2018-07-07T05:28:02.365Z,1010.15
2018-07-07T05:29:02.398Z,1010.28
2018-07-07T05:30:02.427Z,1010.24
2018-07-07T05:31:02.443Z,1010.23
2018-07-07T05:32:02.499Z,1010.12
2018-07-07T05:33:02.499Z,1010.01
2018-07-07T05:34:02.684Z,1010.09
2018-07-07T05:35:02.560Z,1010.04
2018-07-07T05:36:02.587Z,1010.15
2018-07-07T05:37:02.613Z,1010.11
2018-07-07T05:38:02.649Z,1010.42
2018-07-07T05:39:02.661Z,1010.35
2018-07-07T05:40:02.685Z,1010.50
2018-07-07T05:41:02.715Z,1010.63
2018-07-07T05:42:02.744Z,1010.75
2018-07-07T05:43:02.771Z,1010.73
2018-07-07T05:44:02.803Z,1010.74
2018-07-07T05:45:02.819Z,1010.79
2018-07-07T05:46:02.853Z,1010.81
2018-07-07T05:47:02.882Z,1010.82
2018-07-07T05:48:02.908Z,1010.78
2018-07-07T05:49:02.935Z,1010.75
2018-07-07T05:50:03.038Z,1010.69
2018-07-07T05:51:02.986Z,1010.53
2018-07-07T05:52:03.021Z,1010.70
2018-07-07T05:53:03.040Z,1010.54
2018-07-07T05:54:03.075Z,1010.63
2018-07-07T05:55:03.098Z,1010.87
2018-07-07T05:56:03.133Z,1010.92
2018-07-07T05:57:03.154Z,1011.14
2018-07-07T05:58:03.186Z,1011.24
2018-07-07T05:59:03.215Z,1011.33
2018-07-07T06:00:03.238Z,1011.25
2018-07-07T06:01:03.273Z,1011.44
2018-07-07T06:02:03.298Z,1011.48
2018-07-07T06:03:03.325Z,1011.65
2018-07-07T06:04:03.355Z,1011.62
2018-07-07T06:05:03.381Z,1011.56
2018-07-07T06:06:03.415Z,1011.70
2018-07-07T06:07:03.473Z,1011.81
2018-07-07T06:08:03.467Z,1011.85
2018-07-07T06:09:03.510Z,1011.23
2018-07-07T06:10:03.530Z,1012.17
2018-07-07T06:11:03.554Z,1012.02
2018-07-07T06:12:03.588Z,1012.18
2018-07-07T06:13:03.618Z,1012.18
2018-07-07T06:14:03.645Z,1011.09
2018-07-07T06:15:03.674Z,1010.61
2018-07-07T06:16:03.704Z,1010.10
2018-07-07T06:17:03.736Z,1012.07
2018-07-07T06:18:03.769Z,1012.66
2018-07-07T06:19:03.791Z,1012.53
2018-07-07T06:20:03.867Z,1011.55
2018-07-07T06:21:03.849Z,1010.22
2018-07-07T06:22:03.882Z,1011.79
2018-07-07T06:23:03.903Z,1013.20
2018-07-07T06:24:03.937Z,1013.40
2018-07-07T06:25:03.972Z,1013.45
2018-07-07T06:26:03.993Z,1013.62
2018-07-07T06:27:04.028Z,1013.76
2018-07-07T06:28:04.054Z,1013.98
2018-07-07T06:29:04.091Z,1013.86
2018-07-07T06:30:04.113Z,1013.80
2018-07-07T06:31:04.135Z,1014.28
2018-07-07T06:32:04.168Z,1014.54
2018-07-07T06:33:04.193Z,1013.42
2018-07-07T06:34:04.230Z,1013.06
2018-07-07T06:35:04.248Z,1013.81
2018-07-07T06:36:04.299Z,1013.60
2018-07-07T06:37:04.320Z,1012.96
2018-07-07T06:38:04.339Z,1014.34
2018-07-07T06:39:04.376Z,1013.72
2018-07-07T06:40:04.394Z,1016.12
2018-07-07T06:41:04.445Z,1016.33
2018-07-07T06:42:04.458Z,1016.71
2018-07-07T06:43:04.487Z,1016.79
2018-07-07T06:44:04.511Z,1016.21
2018-07-07T06:45:04.558Z,1016.24
2018-07-07T06:46:04.571Z,1016.20
2018-07-07T06:47:04.608Z,1016.16
2018-07-07T06:48:04.623Z,1016.55
2018-07-07T06:49:04.660Z,1017.11
2018-07-07T06:50:04.683Z,1017.67
2018-07-07T06:51:04.711Z,1018.10
2018-07-07T06:52:04.744Z,1018.02
2018-07-07T06:53:04.775Z,1017.68
2018-07-07T06:54:04.900Z,1017.53
2018-07-07T06:55:04.829Z,1017.48
2018-07-07T06:56:04.879Z,1017.94
2018-07-07T06:57:04.893Z,1018.53
2018-07-07T06:58:04.927Z,1018.84
2018-07-07T06:59:04.952Z,1018.82
2018-07-07T07:00:05.048Z,1018.66
2018-07-07T07:01:05.009Z,1019.43
2018-07-07T07:02:05.049Z,1020.01
2018-07-07T07:03:05.067Z,1019.84
2018-07-07T07:04:05.111Z,1020.03
2018-07-07T07:05:05.128Z,1020.02
2018-07-07T07:06:05.171Z,1020.27
2018-07-07T07:07:05.194Z,1020.67
2018-07-07T07:08:05.215Z,1020.41
2018-07-07T07:09:05.259Z,1020.43
2018-07-07T07:10:05.289Z,1020.72
2018-07-07T07:11:05.309Z,1021.27
2018-07-07T07:12:05.367Z,1022.68
2018-07-07T07:13:05.367Z,1023.05
2018-07-07T07:14:05.396Z,1022.16
2018-07-07T07:15:05.427Z,1021.86
2018-07-07T07:16:05.466Z,1022.27
2018-07-07T07:17:05.494Z,1021.96
2018-07-07T07:18:05.517Z,1022.18
2018-07-07T07:19:05.546Z,1022.91
2018-07-07T07:20:05.582Z,1022.76
2018-07-07T07:21:05.624Z,1022.31
2018-07-07T07:22:05.634Z,1022.18
2018-07-07T07:23:05.679Z,1022.00
2018-07-07T07:24:05.701Z,1021.95
2018-07-07T07:25:05.727Z,1022.18
2018-07-07T07:26:05.839Z,1022.74
2018-07-07T07:27:05.797Z,1022.57
2018-07-07T07:28:05.834Z,1021.85
2018-07-07T07:29:05.853Z,1021.30
2018-07-07T07:30:05.880Z,1021.65
2018-07-07T07:31:05.908Z,1022.06
2018-07-07T07:32:05.936Z,1021.60
2018-07-07T07:33:06.041Z,1021.22
2018-07-07T07:34:05.990Z,1021.28
2018-07-07T07:35:06.027Z,1021.52
2018-07-07T07:36:06.051Z,1022.24
2018-07-07T07:37:06.078Z,1022.68
2018-07-07T07:38:06.113Z,1022.86
2018-07-07T07:39:06.145Z,1022.59
2018-07-07T07:40:06.183Z,1022.39
2018-07-07T07:41:06.227Z,1023.05
2018-07-07T07:42:06.241Z,1023.37
2018-07-07T07:43:06.268Z,1023.15
2018-07-07T07:44:06.298Z,1022.78
2018-07-07T07:45:06.331Z,1022.78
2018-07-07T07:46:06.368Z,1022.80
2018-07-07T07:47:06.386Z,1022.92
2018-07-07T07:48:06.422Z,1023.06
2018-07-07T07:49:06.457Z,1023.96
2018-07-07T07:50:06.481Z,1023.96
2018-07-07T07:51:06.506Z,1023.38
2018-07-07T07:52:06.543Z,1023.16
2018-07-07T07:53:06.596Z,1023.03
2018-07-07T07:54:06.606Z,1023.76
2018-07-07T07:55:06.631Z,1025.38
2018-07-07T07:56:06.662Z,1025.38
2018-07-07T07:57:06.694Z,1024.90
2018-07-07T07:58:06.723Z,1025.96
2018-07-07T07:59:06.900Z,1026.27
2018-07-07T08:00:06.791Z,1025.10
2018-07-07T08:01:06.844Z,1024.62
2018-07-07T08:02:06.856Z,1025.44
2018-07-07T08:03:06.879Z,1024.97
2018-07-07T08:04:06.919Z,1025.49
2018-07-07T08:05:06.945Z,1025.65
2018-07-07T08:06:06.976Z,1023.57
2018-07-07T08:07:07.006Z,1023.90
2018-07-07T08:08:07.044Z,1024.60
2018-07-07T08:09:07.085Z,1024.54
2018-07-07T08:10:07.097Z,1026.07
2018-07-07T08:11:07.132Z,1027.02
2018-07-07T08:12:07.153Z,1027.47
2018-07-07T08:13:07.186Z,1027.33
2018-07-07T08:14:07.245Z,1027.39
2018-07-07T08:15:07.251Z,1027.23
2018-07-07T08:16:07.276Z,1026.96
2018-07-07T08:17:07.320Z,1025.95
2018-07-07T08:18:07.341Z,1027.35
2018-07-07T08:19:07.371Z,1025.46
2018-07-07T08:20:07.407Z,1026.78
2018-07-07T08:21:07.437Z,1026.57
2018-07-07T08:22:07.487Z,1027.47
2018-07-07T08:23:07.495Z,1027.71
2018-07-07T08:24:07.526Z,1026.54
2018-07-07T08:25:07.554Z,1025.15
2018-07-07T08:26:07.587Z,1024.69
2018-07-07T08:27:07.626Z,1023.76
2018-07-07T08:28:07.647Z,1023.19
2018-07-07T08:29:07.677Z,1025.52
2018-07-07T08:30:07.706Z,1027.24
2018-07-07T08:31:07.735Z,1027.88
2018-07-07T08:32:07.758Z,1028.34
2018-07-07T08:33:07.797Z,1026.97
2018-07-07T08:34:07.839Z,1026.27
2018-07-07T08:35:07.854Z,1027.63
2018-07-07T08:36:07.890Z,1025.32
2018-07-07T08:37:07.922Z,1017.93
2018-07-07T08:38:07.934Z,1010.13
2018-07-07T08:39:07.972Z,1009.50
2018-07-07T08:40:07.988Z,1009.42
2018-07-07T08:41:08.013Z,1009.44
2018-07-07T08:42:08.092Z,1009.40
2018-07-07T08:43:08.072Z,1009.40
2018-07-07T08:44:08.107Z,1009.34
2018-07-07T08:45:08.127Z,1009.31
2018-07-07T08:46:08.153Z,1009.44
2018-07-07T08:47:08.178Z,1009.43
2018-07-07T08:48:08.205Z,1009.46
2018-07-07T08:49:08.238Z,1009.34
2018-07-07T08:50:08.256Z,1009.29
2018-07-07T08:51:08.282Z,1009.39
2018-07-07T08:52:08.318Z,1009.31
2018-07-07T08:53:08.336Z,1009.34
2018-07-07T08:54:08.368Z,1009.37
2018-07-07T08:55:08.389Z,1009.40
2018-07-07T08:56:08.411Z,1009.39
2018-07-07T08:57:08.439Z,1009.28
2018-07-07T08:58:08.466Z,1009.32
2018-07-07T08:59:08.490Z,1009.26
2018-07-07T09:00:08.519Z,1009.21
2018-07-07T09:01:08.538Z,1009.26
2018-07-07T09:02:08.624Z,1009.21
2018-07-07T09:03:08.584Z,1009.09
2018-07-07T09:04:08.621Z,1009.20
2018-07-07T09:05:08.636Z,1009.21
2018-07-07T09:06:08.663Z,1009.20
2018-07-07T09:07:08.692Z,1009.16
2018-07-07T09:08:08.716Z,1009.20
2018-07-07T09:09:08.734Z,1009.25
2018-07-07T09:10:08.766Z,1009.25
2018-07-07T09:11:08.783Z,1009.21
2018-07-07T09:12:08.812Z,1009.14
2018-07-07T09:13:08.838Z,1009.20
2018-07-07T09:14:08.918Z,1009.17
2018-07-07T09:15:08.884Z,1009.21
2018-07-07T09:16:08.914Z,1009.20
2018-07-07T09:17:08.930Z,1009.17
2018-07-07T09:18:08.961Z,1009.23
2018-07-07T09:19:08.979Z,1009.15
2018-07-07T09:20:09.035Z,1009.11
2018-07-07T09:21:09.047Z,1009.01
2018-07-07T09:22:09.080Z,1009.05
2018-07-07T09:23:09.075Z,1009.05
2018-07-07T09:24:09.099Z,1009.04
2018-07-07T09:25:09.132Z,1009.03
2018-07-07T09:26:09.194Z,1009.02
2018-07-07T09:27:09.176Z,1008.98
2018-07-07T09:28:09.199Z,1008.95
2018-07-07T09:29:09.224Z,1009.03
2018-07-07T09:30:09.262Z,1008.88
2018-07-07T09:31:09.273Z,1008.93
2018-07-07T09:32:09.295Z,1008.88
2018-07-07T09:33:09.319Z,1008.87
2018-07-07T09:34:09.353Z,1008.89
2018-07-07T09:35:09.374Z,1008.86
2018-07-07T09:36:09.447Z,1008.89
2018-07-07T09:37:09.418Z,1008.87
2018-07-07T09:38:09.458Z,1008.92
2018-07-07T09:39:09.467Z,1008.93
2018-07-07T09:40:09.492Z,1008.95
2018-07-07T09:41:09.513Z,1008.99
2018-07-07T09:42:09.541Z,1008.95
2018-07-07T09:43:09.565Z,1008.99
2018-07-07T09:44:09.663Z,1008.94
2018-07-07T09:45:09.609Z,1008.99
2018-07-07T09:46:09.644Z,1008.95
2018-07-07T09:47:09.661Z,1008.96
2018-07-07T09:48:09.688Z,1008.99
2018-07-07T09:49:09.712Z,1008.95
2018-07-07T09:50:09.737Z,1008.97
2018-07-07T09:51:09.756Z,1008.96
2018-07-07T09:52:09.785Z,1008.89
2018-07-07T09:53:09.804Z,1008.98
2018-07-07T09:54:09.835Z,1009.02
2018-07-07T09:55:09.860Z,1008.99
2018-07-07T09:56:09.980Z,1008.93
2018-07-07T09:57:09.906Z,1008.93
2018-07-07T09:58:09.928Z,1008.81
2018-07-07T09:59:09.952Z,1008.84
2018-07-07T10:00:09.974Z,1008.82
2018-07-07T10:01:09.998Z,1008.77
2018-07-07T10:02:10.026Z,1008.87
2018-07-07T10:03:10.049Z,1008.87
2018-07-07T10:04:10.070Z,1009.02
2018-07-07T10:05:10.095Z,1009.00
2018-07-07T10:06:10.117Z,1009.11
2018-07-07T10:07:10.143Z,1009.06
2018-07-07T10:08:10.165Z,1008.99
2018-07-07T10:09:10.189Z,1008.91
2018-07-07T10:10:10.216Z,1008.88
2018-07-07T10:11:10.241Z,1008.86
2018-07-07T10:12:10.263Z,1008.90
2018-07-07T10:13:10.288Z,1008.83
2018-07-07T10:14:10.311Z,1008.88
2018-07-07T10:15:10.332Z,1008.87
2018-07-07T10:16:10.363Z,1008.87
2018-07-07T10:17:10.387Z,1008.86
2018-07-07T10:18:10.409Z,1008.86
2018-07-07T10:19:10.427Z,1008.82
2018-07-07T10:20:10.456Z,1008.87
2018-07-07T10:21:10.476Z,1008.97
2018-07-07T10:22:10.504Z,1008.95
2018-07-07T10:23:10.524Z,1008.97
2018-07-07T10:24:10.548Z,1008.89
2018-07-07T10:25:10.577Z,1008.93
2018-07-07T10:26:10.610Z,1009.01
2018-07-07T10:27:10.620Z,1008.99
2018-07-07T10:28:10.642Z,1009.01
2018-07-07T10:29:10.667Z,1008.95
2018-07-07T10:30:10.692Z,1008.87
2018-07-07T10:31:10.715Z,1008.90
2018-07-07T10:32:10.743Z,1008.97
2018-07-07T10:33:10.763Z,1009.05
2018-07-07T10:34:10.791Z,1008.93
2018-07-07T10:35:10.823Z,1008.89
2018-07-07T10:36:10.841Z,1008.84
2018-07-07T10:37:10.862Z,1008.89
2018-07-07T10:38:10.912Z,1008.89
2018-07-07T10:39:10.905Z,1008.85
2018-07-07T10:40:10.942Z,1008.86
2018-07-07T10:41:10.957Z,1008.98
2018-07-07T10:42:10.983Z,1008.94
2018-07-07T10:43:11.012Z,1008.95
2018-07-07T10:44:11.045Z,1008.87
2018-07-07T10:45:11.068Z,1008.82
2018-07-07T10:46:11.161Z,1008.79
2018-07-07T10:47:11.106Z,1008.82
2018-07-07T10:48:11.130Z,1008.80
2018-07-07T10:49:11.174Z,1008.83
2018-07-07T10:50:11.193Z,1008.87
2018-07-07T10:51:11.206Z,1008.85
2018-07-07T10:52:11.232Z,1008.83
2018-07-07T10:53:11.262Z,1008.81
2018-07-07T10:54:11.269Z,1008.76
2018-07-07T10:55:11.309Z,1008.70
2018-07-07T10:56:11.321Z,1008.74
2018-07-07T10:57:11.343Z,1008.71
2018-07-07T10:58:11.374Z,1008.76
2018-07-07T10:59:11.394Z,1008.77
2018-07-07T11:00:11.421Z,1008.82
2018-07-07T11:01:11.439Z,1008.76
2018-07-07T11:02:11.467Z,1008.71
2018-07-07T11:03:11.507Z,1008.78
2018-07-07T11:04:11.528Z,1008.71
2018-07-07T11:05:11.533Z,1008.67
2018-07-07T11:06:11.557Z,1008.67
2018-07-07T11:07:11.581Z,1008.70
2018-07-07T11:08:11.604Z,1008.67
2018-07-07T11:09:11.651Z,1008.68
2018-07-07T11:10:11.661Z,1008.69
2018-07-07T11:11:11.679Z,1008.65
2018-07-07T11:12:11.779Z,1008.60
2018-07-07T11:13:11.729Z,1008.56
2018-07-07T11:14:11.752Z,1008.56
2018-07-07T11:15:11.772Z,1008.61
2018-07-07T11:16:11.804Z,1008.51
2018-07-07T11:17:11.832Z,1008.49
2018-07-07T11:18:11.845Z,1008.56
2018-07-07T11:19:11.867Z,1008.52
2018-07-07T11:20:11.896Z,1008.57
2018-07-07T11:21:11.938Z,1008.54
2018-07-07T11:22:11.962Z,1008.47
2018-07-07T11:23:11.965Z,1008.49
2018-07-07T11:24:11.991Z,1008.51
2018-07-07T11:25:12.010Z,1008.47
2018-07-07T11:26:12.040Z,1008.51
2018-07-07T11:27:12.058Z,1008.51
2018-07-07T11:28:12.090Z,1008.58
2018-07-07T11:29:12.112Z,1008.56
2018-07-07T11:30:12.131Z,1008.53
2018-07-07T11:31:12.156Z,1008.50
2018-07-07T11:32:12.183Z,1008.51
2018-07-07T11:33:12.201Z,1008.51
2018-07-07T11:34:12.233Z,1008.50
2018-07-07T11:35:12.249Z,1008.50
2018-07-07T11:36:12.326Z,1008.47
2018-07-07T11:37:12.310Z,1008.45
2018-07-07T11:38:12.328Z,1008.44
2018-07-07T11:39:12.351Z,1008.47
2018-07-07T11:40:12.378Z,1008.46
2018-07-07T11:41:12.396Z,1008.45
2018-07-07T11:42:12.439Z,1008.40
2018-07-07T11:43:12.440Z,1008.42
2018-07-07T11:44:12.472Z,1008.37
2018-07-07T11:45:12.493Z,1008.45
2018-07-07T11:46:12.521Z,1008.44
2018-07-07T11:47:12.543Z,1008.43
2018-07-07T11:48:12.564Z,1008.50
2018-07-07T11:49:12.587Z,1008.45
2018-07-07T11:50:12.681Z,1008.36
2018-07-07T11:51:12.651Z,1008.45
2018-07-07T11:52:12.668Z,1008.39
2018-07-07T11:53:12.685Z,1008.33
2018-07-07T11:54:12.713Z,1008.40
2018-07-07T11:55:12.736Z,1008.38
2018-07-07T11:56:12.764Z,1008.39
2018-07-07T11:57:12.839Z,1008.40
2018-07-07T11:58:12.805Z,1008.43
2018-07-07T11:59:12.831Z,1008.34
2018-07-07T12:00:12.868Z,1008.41
2018-07-07T12:01:12.888Z,1008.38
2018-07-07T12:02:12.902Z,1008.48
2018-07-07T12:03:12.928Z,1008.38
2018-07-07T12:04:12.961Z,1008.38
2018-07-07T12:05:12.976Z,1008.36
2018-07-07T12:06:13.024Z,1008.40